createdAt,value
2019-03-20T00:04:09.009Z,8.53
2019-03-20T00:09:14.646Z,10.20
2019-03-20T00:14:19.799Z,9.67
2019-03-20T00:19:25.024Z,10.30
2019-03-20T00:24:30.183Z,10.87
2019-03-20T00:29:35.738Z,10.93
2019-03-20T00:34:40.880Z,9.67
2019-03-20T00:39:46.101Z,8.80
2019-03-20T00:44:51.244Z,9.87
2019-03-20T00:49:58.075Z,10.43
2019-03-20T00:55:04.115Z,9.73
2019-03-20T01:00:14.863Z,12.47
2019-03-20T01:05:21.040Z,6.77
2019-03-20T01:10:26.198Z,13.47
2019-03-20T01:15:31.764Z,9.80
2019-03-20T01:20:37.216Z,8.90
2019-03-20T01:25:42.696Z,9.27
2019-03-20T01:30:47.832Z,10.53
2019-03-20T01:35:52.975Z,7.83
2019-03-20T01:40:58.124Z,7.10
2019-03-20T01:46:05.292Z,7.57
2019-03-20T01:51:20.961Z,13.30
2019-03-20T01:56:26.108Z,8.67
2019-03-20T02:01:31.624Z,9.60
2019-03-20T02:06:37.311Z,9.07
2019-03-20T02:11:42.470Z,5.43
2019-03-20T02:16:47.878Z,8.67
2019-03-20T02:21:53.039Z,10.13
2019-03-20T02:26:58.648Z,12.20
2019-03-20T02:32:04.987Z,9.07
2019-03-20T02:37:10.733Z,7.77
2019-03-20T02:42:15.877Z,9.93
2019-03-20T02:47:21.417Z,9.33
2019-03-20T02:52:26.482Z,8.40
2019-03-20T02:57:31.650Z,8.27
2019-03-20T03:02:36.619Z,8.47
2019-03-20T03:07:41.813Z,8.47
2019-03-20T03:12:47.347Z,7.00
2019-03-20T03:17:52.853Z,7.33
2019-03-20T03:22:58.131Z,7.73
2019-03-20T03:28:03.305Z,9.53
2019-03-20T03:33:08.476Z,11.50
2019-03-20T03:38:13.655Z,11.33
2019-03-20T03:43:18.806Z,9.60
2019-03-20T03:48:24.316Z,10.23
2019-03-20T03:53:29.519Z,6.77
2019-03-20T03:58:34.660Z,9.27
2019-03-20T04:03:40.230Z,8.07
2019-03-20T04:08:45.311Z,7.20
2019-03-20T04:13:51.434Z,14.63
2019-03-20T04:18:56.963Z,6.63
2019-03-20T04:24:02.104Z,9.20
2019-03-20T04:29:07.613Z,8.43
2019-03-20T04:34:12.788Z,10.57
2019-03-20T04:39:18.313Z,8.30
2019-03-20T04:44:23.964Z,7.67
2019-03-20T04:49:29.061Z,8.37
2019-03-20T04:54:34.522Z,7.60
2019-03-20T04:59:39.739Z,13.03
2019-03-20T05:04:44.825Z,7.90
2019-03-20T05:09:50.557Z,11.00
2019-03-20T05:14:56.089Z,9.10
2019-03-20T05:20:01.261Z,12.17
2019-03-20T05:25:06.885Z,9.27
2019-03-20T05:30:13.318Z,11.07
2019-03-20T05:35:18.536Z,7.80
2019-03-20T05:40:24.720Z,11.80
2019-03-20T05:45:30.218Z,7.50
2019-03-20T05:50:35.796Z,8.03
2019-03-20T05:55:41.876Z,8.93
2019-03-20T06:00:47.048Z,9.93
2019-03-20T06:05:52.602Z,8.43
2019-03-20T06:10:58.030Z,8.37
2019-03-20T06:16:03.551Z,9.40
2019-03-20T06:21:08.716Z,4.90
2019-03-20T06:26:13.948Z,5.97
2019-03-20T06:31:19.464Z,6.33
2019-03-20T06:36:24.633Z,7.53
2019-03-20T06:41:29.863Z,10.63
2019-03-20T06:46:35.019Z,6.43
2019-03-20T06:51:40.205Z,10.17
2019-03-20T06:56:45.715Z,7.63
2019-03-20T07:01:50.831Z,10.83
2019-03-20T07:07:15.262Z,8.70
2019-03-20T07:12:19.720Z,9.10
2019-03-20T07:17:24.886Z,7.07
2019-03-20T07:22:30.059Z,5.30
2019-03-20T07:27:35.265Z,6.97
2019-03-20T07:32:40.477Z,4.10
2019-03-20T07:37:55.612Z,5.77
2019-03-20T07:42:52.550Z,9.63
2019-03-20T07:47:57.652Z,10.90
2019-03-20T07:53:03.078Z,7.90
2019-03-20T07:58:08.240Z,7.40
2019-03-20T08:03:13.704Z,6.70
2019-03-20T08:08:18.868Z,10.20
2019-03-20T08:13:24.042Z,7.57
2019-03-20T08:18:29.198Z,7.40
2019-03-20T08:23:34.380Z,8.27
2019-03-20T08:28:39.934Z,6.93
2019-03-20T08:33:45.022Z,8.60
2019-03-20T08:38:50.528Z,9.00
2019-03-20T08:43:55.691Z,7.13
2019-03-20T08:49:01.520Z,9.40
2019-03-20T08:54:07.329Z,9.30
2019-03-20T08:59:12.439Z,10.53
2019-03-20T09:04:17.607Z,8.23
2019-03-20T09:09:24.580Z,6.77
2019-03-20T09:14:30.153Z,8.03
2019-03-20T09:19:35.811Z,7.40
2019-03-20T09:24:41.008Z,8.40
2019-03-20T09:29:46.330Z,8.60
2019-03-20T09:34:51.514Z,12.17
2019-03-20T09:39:56.704Z,9.37
2019-03-20T09:45:01.801Z,11.53
2019-03-20T09:50:08.562Z,9.63
2019-03-20T09:55:14.276Z,8.20
2019-03-20T10:00:21.165Z,9.47
2019-03-20T10:05:26.328Z,9.80
2019-03-20T10:10:31.752Z,7.83
2019-03-20T10:15:36.910Z,9.87
2019-03-20T10:20:42.071Z,7.77
2019-03-20T10:25:47.587Z,8.00
2019-03-20T10:30:54.104Z,9.53
2019-03-20T10:35:59.843Z,7.10
2019-03-20T10:41:05.464Z,9.20
2019-03-20T10:46:10.700Z,5.10
2019-03-20T10:51:17.766Z,11.70
2019-03-20T10:56:23.361Z,5.10
2019-03-20T11:01:28.926Z,8.43
2019-03-20T11:06:34.996Z,6.53
2019-03-20T11:11:40.541Z,5.07
2019-03-20T11:16:45.964Z,5.50
2019-03-20T11:21:51.140Z,4.33
2019-03-20T11:26:56.265Z,7.37
2019-03-20T11:32:02.784Z,9.03
2019-03-20T11:37:07.944Z,4.93
2019-03-20T11:42:13.110Z,6.10
2019-03-20T11:47:18.485Z,7.30
2019-03-20T11:52:23.729Z,8.70
2019-03-20T11:57:29.263Z,4.92
2019-03-20T12:02:34.532Z,4.28
2019-03-20T12:07:39.787Z,5.67
2019-03-20T12:12:44.968Z,7.60
2019-03-20T12:17:50.153Z,6.37
2019-03-20T12:22:55.872Z,7.40
2019-03-20T12:28:01.159Z,6.78
2019-03-20T12:33:06.821Z,6.30
2019-03-20T12:38:14.802Z,8.65
2019-03-20T12:43:19.052Z,7.78
2019-03-20T12:48:24.309Z,7.30
2019-03-20T12:53:31.523Z,8.45
2019-03-20T12:58:36.689Z,4.62
2019-03-20T13:03:42.352Z,6.55
2019-03-20T13:08:47.599Z,5.10
2019-03-20T13:13:53.163Z,6.35
2019-03-20T13:18:58.414Z,6.75
2019-03-20T13:24:03.666Z,7.05
2019-03-20T13:29:09.297Z,5.58
2019-03-20T13:34:14.541Z,6.35
2019-03-20T13:39:20.767Z,8.25
2019-03-20T13:44:26.310Z,8.25
2019-03-20T13:49:31.492Z,7.47
2019-03-20T13:54:36.792Z,8.18
2019-03-20T13:59:42.067Z,7.67
2019-03-20T14:04:47.635Z,6.95
2019-03-20T14:09:53.170Z,9.08
2019-03-20T14:14:58.810Z,7.53
2019-03-20T14:20:04.686Z,7.35
2019-03-20T14:25:10.269Z,7.37
2019-03-20T14:30:23.487Z,5.75
2019-03-20T14:35:28.723Z,6.35
2019-03-20T14:40:37.092Z,5.65
2019-03-20T14:45:41.943Z,5.40
2019-03-20T14:50:47.181Z,7.80
2019-03-20T14:55:52.821Z,7.12
2019-03-20T15:00:58.068Z,8.35
2019-03-20T15:06:03.328Z,6.25
2019-03-20T15:11:08.575Z,9.23
2019-03-20T15:16:14.289Z,8.85
2019-03-20T15:21:19.848Z,9.58
2019-03-20T15:26:25.115Z,13.95
2019-03-20T15:31:30.545Z,15.60
2019-03-20T15:36:37.238Z,12.82
2019-03-20T15:41:42.516Z,10.50
2019-03-20T15:46:47.905Z,12.70
2019-03-20T15:51:53.329Z,16.42
2019-03-20T15:56:58.596Z,14.45
2019-03-20T16:02:04.539Z,12.68
2019-03-20T16:07:09.812Z,13.45
2019-03-20T16:12:15.263Z,13.78
2019-03-20T16:17:20.610Z,12.30
2019-03-20T16:22:26.991Z,16.10
2019-03-20T16:27:32.476Z,17.42
2019-03-20T16:32:38.650Z,14.65
2019-03-20T16:37:46.769Z,13.72
2019-03-20T16:42:52.118Z,16.12
2019-03-20T16:47:57.682Z,17.75
2019-03-20T16:53:03.343Z,38.85
2019-03-20T16:58:08.964Z,34.35
2019-03-20T17:03:14.235Z,16.75
2019-03-20T17:08:19.419Z,18.80
2019-03-20T17:13:25.087Z,15.85
2019-03-20T17:18:30.433Z,13.50
2019-03-20T17:23:35.698Z,14.20
2019-03-20T17:28:40.965Z,13.93
2019-03-20T17:33:47.389Z,13.22
2019-03-20T17:38:53.038Z,17.07
2019-03-20T17:43:58.298Z,15.98
2019-03-20T17:49:03.567Z,28.55
2019-03-20T17:54:08.841Z,20.05
2019-03-20T17:59:17.145Z,16.57
2019-03-20T18:04:22.329Z,15.57
2019-03-20T18:09:27.625Z,18.25
2019-03-20T18:14:33.374Z,19.95
2019-03-20T18:19:39.000Z,17.05
2019-03-20T18:24:44.259Z,18.75
2019-03-20T18:29:49.822Z,19.57
2019-03-20T18:34:55.002Z,16.17
2019-03-20T18:40:00.888Z,16.00
2019-03-20T18:45:06.977Z,15.13
2019-03-20T18:50:12.720Z,16.90
2019-03-20T18:55:18.670Z,14.63
2019-03-20T19:00:26.152Z,14.70
2019-03-20T19:05:40.365Z,13.43
2019-03-20T19:10:46.024Z,16.53
2019-03-20T19:15:53.793Z,15.03
2019-03-20T19:20:59.287Z,16.70
2019-03-20T19:26:04.912Z,16.77
2019-03-20T19:31:10.125Z,20.87
2019-03-20T19:36:15.707Z,17.30
2019-03-20T19:41:20.969Z,17.23
2019-03-20T19:46:26.151Z,16.50
2019-03-20T19:51:31.373Z,18.43
2019-03-20T19:56:36.631Z,17.20
2019-03-20T20:01:41.881Z,19.27
2019-03-20T20:06:47.064Z,17.90
2019-03-20T20:11:52.911Z,15.63
2019-03-20T20:16:58.092Z,16.17
2019-03-20T20:22:03.342Z,15.57
2019-03-20T20:27:08.524Z,17.07
2019-03-20T20:32:14.109Z,17.00
2019-03-20T20:37:20.264Z,18.17
2019-03-20T20:42:25.461Z,17.23
2019-03-20T20:47:30.647Z,19.17
2019-03-20T20:52:35.857Z,16.43
2019-03-20T20:57:41.055Z,17.77
2019-03-20T21:02:46.279Z,15.10
2019-03-20T21:07:51.918Z,16.77
2019-03-20T21:12:57.706Z,18.60
2019-03-20T21:18:57.113Z,16.40
2019-03-20T21:24:23.710Z,14.60
2019-03-20T21:29:54.987Z,14.07
2019-03-20T21:35:56.547Z,17.87
2019-03-20T21:41:53.587Z,18.63
2019-03-20T21:47:35.489Z,17.97
2019-03-20T21:52:41.936Z,18.87
2019-03-20T21:58:17.662Z,13.53
2019-03-20T22:03:23.355Z,17.87
2019-03-20T22:08:29.175Z,13.17
2019-03-20T22:13:51.514Z,13.20
2019-03-20T22:19:14.880Z,14.73
2019-03-20T22:24:32.279Z,16.23
2019-03-20T22:29:38.409Z,15.30
2019-03-20T22:35:21.195Z,11.33
2019-03-20T22:41:09.191Z,15.73
2019-03-20T22:46:50.104Z,14.80
2019-03-20T22:52:41.452Z,15.23
2019-03-20T22:58:09.490Z,14.50
2019-03-20T23:03:20.664Z,12.77
2019-03-20T23:08:27.334Z,14.33
2019-03-20T23:13:41.436Z,11.10
2019-03-20T23:18:41.100Z,13.23
2019-03-20T23:23:47.144Z,13.63
2019-03-20T23:28:53.497Z,13.80
2019-03-20T23:33:59.197Z,12.17
2019-03-20T23:39:06.900Z,14.27
2019-03-20T23:44:12.734Z,11.37
2019-03-20T23:49:20.967Z,14.43
2019-03-20T23:54:30.959Z,14.57
2019-03-20T23:59:36.763Z,17.67
